createdAt,value
2023-02-06T00:03:21.461Z,46.38
2023-02-06T00:07:22.924Z,42.20
2023-02-06T00:11:24.526Z,49.40
2023-02-06T00:15:26.094Z,43.95
2023-02-06T00:19:28.226Z,47.28
2023-02-06T00:23:29.699Z,50.70
2023-02-06T00:27:31.684Z,56.95
2023-02-06T00:31:33.492Z,59.35
2023-02-06T00:35:35.489Z,58.38
2023-02-06T00:39:37.640Z,57.38
2023-02-06T00:43:39.156Z,60.00
2023-02-06T00:47:40.632Z,58.08
2023-02-06T00:51:42.413Z,57.28
2023-02-06T00:55:44.054Z,64.10
2023-02-06T00:59:45.513Z,53.00
2023-02-06T01:03:47.192Z,67.97
2023-02-06T01:07:48.943Z,61.47
2023-02-06T01:11:50.539Z,59.67
2023-02-06T01:15:53.073Z,60.65
2023-02-06T01:19:54.623Z,55.33
2023-02-06T01:23:56.570Z,66.15
2023-02-06T01:27:58.902Z,57.88
2023-02-06T01:32:01.867Z,61.45
2023-02-06T01:36:03.431Z,63.53
2023-02-06T01:40:07.292Z,68.10
2023-02-06T01:44:19.849Z,68.55
2023-02-06T01:48:28.223Z,68.65
2023-02-06T01:52:31.198Z,62.10
2023-02-06T01:56:40.569Z,66.43
2023-02-06T02:00:42.283Z,67.40
2023-02-06T02:04:44.425Z,73.03
2023-02-06T02:08:47.765Z,69.88
2023-02-06T02:12:49.632Z,65.35
2023-02-06T02:17:16.158Z,70.20
2023-02-06T02:21:38.256Z,84.53
2023-02-06T02:26:09.000Z,90.40
2023-02-06T02:30:20.708Z,96.47
2023-02-06T02:34:37.805Z,89.13
2023-02-06T02:38:53.706Z,98.53
2023-02-06T02:43:22.432Z,99.70
2023-02-06T02:47:28.806Z,115.40
2023-02-06T02:51:30.260Z,97.22
2023-02-06T02:55:32.122Z,110.45
2023-02-06T02:59:39.654Z,269.08
2023-02-06T03:03:41.699Z,143.98
2023-02-06T03:08:16.817Z,277.02
2023-02-06T03:12:34.764Z,305.83
2023-02-06T03:16:48.830Z,403.77
2023-02-06T03:20:51.604Z,271.52
2023-02-06T03:24:54.238Z,169.55
2023-02-06T03:29:06.982Z,326.05
2023-02-06T03:33:11.882Z,161.18
2023-02-06T03:37:14.205Z,235.90
2023-02-06T03:41:17.446Z,152.05
2023-02-06T03:45:24.692Z,168.98
2023-02-06T03:49:29.174Z,171.48
2023-02-06T03:53:32.959Z,114.25
2023-02-06T03:57:35.741Z,119.50
2023-02-06T04:01:43.684Z,105.22
2023-02-06T04:05:45.186Z,96.10
2023-02-06T04:09:46.642Z,87.38
2023-02-06T04:13:48.109Z,126.57
2023-02-06T04:17:59.870Z,114.95
2023-02-06T04:22:02.680Z,109.97
2023-02-06T04:26:04.703Z,94.55
2023-02-06T04:30:07.028Z,99.15
2023-02-06T04:34:08.636Z,93.53
2023-02-06T04:38:10.131Z,91.63
2023-02-06T04:42:11.997Z,103.35
2023-02-06T04:46:13.952Z,100.28
2023-02-06T04:50:15.849Z,88.75
2023-02-06T04:54:17.844Z,86.25
2023-02-06T04:58:19.625Z,79.88
2023-02-06T05:02:21.536Z,92.85
2023-02-06T05:06:23.040Z,95.10
2023-02-06T05:10:24.597Z,101.22
2023-02-06T05:14:26.708Z,87.20
2023-02-06T05:18:28.355Z,86.60
2023-02-06T05:22:29.996Z,90.75
2023-02-06T05:26:32.646Z,94.00
2023-02-06T05:30:35.120Z,89.03
2023-02-06T05:34:36.837Z,76.68
2023-02-06T05:38:38.536Z,80.55
2023-02-06T05:42:40.246Z,78.28
2023-02-06T05:46:42.607Z,80.65
2023-02-06T05:50:44.152Z,78.80
2023-02-06T05:54:45.958Z,76.72
2023-02-06T05:58:47.686Z,70.82
2023-02-06T06:02:49.436Z,70.20
2023-02-06T06:06:50.950Z,67.50
2023-02-06T06:10:52.512Z,72.18
2023-02-06T06:14:54.625Z,72.13
2023-02-06T06:18:56.394Z,63.60
2023-02-06T06:23:00.989Z,68.93
2023-02-06T06:27:03.969Z,68.55
2023-02-06T06:31:08.315Z,59.78
2023-02-06T06:35:09.932Z,64.53
2023-02-06T06:39:11.989Z,62.30
2023-02-06T06:43:14.121Z,62.25
2023-02-06T06:47:15.825Z,60.15
2023-02-06T06:51:17.382Z,61.55
2023-02-06T06:55:20.626Z,62.92
2023-02-06T06:59:22.494Z,53.70
2023-02-06T07:03:24.576Z,57.10
2023-02-06T07:07:26.484Z,55.40
2023-02-06T07:11:28.161Z,52.35
2023-02-06T07:15:29.978Z,49.80
2023-02-06T07:19:31.459Z,47.92
2023-02-06T07:23:33.275Z,46.60
2023-02-06T07:27:34.685Z,42.20
2023-02-06T07:31:36.511Z,44.47
2023-02-06T07:35:38.407Z,45.10
2023-02-06T07:39:40.042Z,41.75
2023-02-06T07:43:41.736Z,34.65
2023-02-06T07:47:43.974Z,41.92
2023-02-06T07:51:46.060Z,37.28
2023-02-06T07:55:47.642Z,36.88
2023-02-06T07:59:49.074Z,36.65
2023-02-06T08:03:54.940Z,35.17
2023-02-06T08:07:57.157Z,32.50
2023-02-06T08:11:59.365Z,29.13
2023-02-06T08:16:10.776Z,34.58
2023-02-06T08:20:12.662Z,34.58
2023-02-06T08:24:14.519Z,31.17
2023-02-06T08:28:17.204Z,30.88
2023-02-06T08:32:19.301Z,26.85
2023-02-06T08:36:21.725Z,28.70
2023-02-06T08:40:23.853Z,29.10
2023-02-06T08:44:26.189Z,28.58
2023-02-06T08:48:27.644Z,28.88
2023-02-06T08:52:29.196Z,26.10
2023-02-06T08:56:31.710Z,23.52
2023-02-06T09:00:33.678Z,24.40
2023-02-06T09:04:37.827Z,24.33
2023-02-06T09:08:40.323Z,22.20
2023-02-06T09:12:42.084Z,20.75
2023-02-06T09:16:43.708Z,22.15
2023-02-06T09:20:48.627Z,22.08
2023-02-06T09:24:50.108Z,20.58
2023-02-06T09:28:53.063Z,18.42
2023-02-06T09:32:54.938Z,18.17
2023-02-06T09:36:58.053Z,19.23
2023-02-06T09:41:03.237Z,16.55
2023-02-06T09:45:18.173Z,17.05
2023-02-06T09:49:30.854Z,19.38
2023-02-06T09:53:35.617Z,15.60
2023-02-06T09:58:00.233Z,17.83
2023-02-06T10:02:12.116Z,19.45
2023-02-06T10:06:27.031Z,19.65
2023-02-06T10:10:42.422Z,17.60
2023-02-06T10:14:44.902Z,17.98
2023-02-06T10:18:49.950Z,16.58
2023-02-06T10:23:02.607Z,16.40
2023-02-06T10:27:09.476Z,16.55
2023-02-06T10:31:26.491Z,15.45
2023-02-06T10:35:58.135Z,11.60
2023-02-06T10:40:03.450Z,11.15
2023-02-06T10:44:08.164Z,10.60
2023-02-06T10:48:39.189Z,11.55
2023-02-06T10:52:41.999Z,12.02
2023-02-06T10:56:45.537Z,10.80
2023-02-06T11:00:48.341Z,7.93
2023-02-06T11:05:04.057Z,8.98
2023-02-06T11:09:06.254Z,11.68
2023-02-06T11:13:21.724Z,7.10
2023-02-06T11:17:28.412Z,10.00
2023-02-06T11:21:41.820Z,7.07
2023-02-06T11:25:44.140Z,13.70
2023-02-06T11:29:51.014Z,7.38
2023-02-06T11:33:56.776Z,8.50
2023-02-06T11:38:16.850Z,6.97
2023-02-06T11:42:19.923Z,10.02
2023-02-06T11:46:30.160Z,9.32
2023-02-06T11:50:34.925Z,8.70
2023-02-06T11:54:36.733Z,9.68
2023-02-06T11:58:38.238Z,8.45
2023-02-06T12:02:39.852Z,7.25
2023-02-06T12:06:42.155Z,5.55
2023-02-06T12:10:56.195Z,5.70
2023-02-06T12:15:36.270Z,10.05
2023-02-06T12:19:45.035Z,7.57
2023-02-06T12:23:54.831Z,6.70
2023-02-06T12:28:09.174Z,6.40
2023-02-06T12:32:19.939Z,7.50
2023-02-06T12:36:27.917Z,9.63
2023-02-06T12:40:39.656Z,8.82
2023-02-06T12:45:06.212Z,8.68
2023-02-06T12:49:21.636Z,10.13
2023-02-06T12:53:36.028Z,14.50
2023-02-06T12:57:38.836Z,8.40
2023-02-06T13:01:52.875Z,11.02
2023-02-06T13:06:12.593Z,10.65
2023-02-06T13:10:19.387Z,10.52
2023-02-06T13:14:26.214Z,12.32
2023-02-06T13:18:53.406Z,11.57
2023-02-06T13:23:14.905Z,15.80
2023-02-06T13:27:23.946Z,14.13
2023-02-06T13:31:27.747Z,12.50
2023-02-06T13:35:31.073Z,8.88
2023-02-06T13:39:33.480Z,8.20
2023-02-06T13:43:39.446Z,8.55
2023-02-06T13:48:08.870Z,9.38
2023-02-06T13:52:33.977Z,7.00
2023-02-06T13:56:59.059Z,9.05
2023-02-06T14:01:01.404Z,6.38
2023-02-06T14:05:05.284Z,9.25
2023-02-06T14:09:51.996Z,9.05
2023-02-06T14:14:28.858Z,8.20
2023-02-06T14:19:04.646Z,7.05
2023-02-06T14:23:15.038Z,6.78
2023-02-06T14:27:41.650Z,7.13
2023-02-06T14:32:04.206Z,7.60
2023-02-06T14:36:34.751Z,6.55
2023-02-06T14:40:43.097Z,5.25
2023-02-06T14:44:50.848Z,8.27
2023-02-06T14:48:55.853Z,5.80
2023-02-06T14:53:07.650Z,7.97
2023-02-06T14:57:28.092Z,9.07
2023-02-06T15:01:32.585Z,5.57
2023-02-06T15:05:34.717Z,8.20
2023-02-06T15:09:39.333Z,10.05
2023-02-06T15:13:50.372Z,7.32
2023-02-06T15:18:15.663Z,6.82
2023-02-06T15:22:23.236Z,13.13
2023-02-06T15:26:35.546Z,12.10
2023-02-06T15:30:37.890Z,9.82
2023-02-06T15:34:39.639Z,7.68
2023-02-06T15:38:43.670Z,6.13
2023-02-06T15:42:47.047Z,8.90
2023-02-06T15:46:49.845Z,5.80
2023-02-06T15:51:00.245Z,7.53
2023-02-06T15:55:02.291Z,6.70
2023-02-06T15:59:06.642Z,8.85
2023-02-06T16:03:16.351Z,6.53
2023-02-06T16:07:20.600Z,7.93
2023-02-06T16:11:47.592Z,8.50
2023-02-06T16:16:05.530Z,15.23
2023-02-06T16:20:28.675Z,10.45
2023-02-06T16:24:30.249Z,13.77
2023-02-06T16:28:31.710Z,7.57
2023-02-06T16:32:34.829Z,10.68
2023-02-06T16:36:36.299Z,10.63
2023-02-06T16:40:38.283Z,12.27
2023-02-06T16:44:45.316Z,18.13
2023-02-06T16:48:49.507Z,12.45
2023-02-06T16:52:53.604Z,12.45
2023-02-06T16:56:57.675Z,7.18
2023-02-06T17:00:59.702Z,6.55
2023-02-06T17:05:02.013Z,7.70
2023-02-06T17:09:09.252Z,5.13
2023-02-06T17:13:17.653Z,7.60
2023-02-06T18:36:26.588Z,10.05
2023-02-06T18:40:30.518Z,8.32
2023-02-06T18:44:31.995Z,6.32
2023-02-06T18:48:33.513Z,6.90
2023-02-06T18:52:35.240Z,7.32
2023-02-06T18:56:39.579Z,8.95
2023-02-06T19:00:42.614Z,15.70
2023-02-06T19:04:44.210Z,8.18
2023-02-06T19:08:46.800Z,6.60
2023-02-06T19:12:48.708Z,6.82
2023-02-06T19:16:51.344Z,7.28
2023-02-06T19:20:52.759Z,11.63
2023-02-06T19:24:54.299Z,7.63
2023-02-06T19:28:57.002Z,8.85
2023-02-06T19:32:59.034Z,10.95
2023-02-06T19:37:03.224Z,7.47
2023-02-06T19:41:09.145Z,9.48
2023-02-06T19:45:10.842Z,12.88
2023-02-06T19:49:13.082Z,10.27
2023-02-06T19:53:16.863Z,12.02
2023-02-06T19:57:19.466Z,12.10
2023-02-06T20:01:20.986Z,10.60
2023-02-06T20:05:27.090Z,15.23
2023-02-06T20:09:29.794Z,14.27
2023-02-06T20:13:31.522Z,13.18
2023-02-06T20:17:33.348Z,10.23
2023-02-06T20:21:39.423Z,10.18
2023-02-06T20:25:41.332Z,10.70
2023-02-06T20:29:43.375Z,10.27
2023-02-06T20:33:45.372Z,13.13
2023-02-06T20:37:48.892Z,14.95
2023-02-06T20:41:51.114Z,16.33
2023-02-06T20:45:52.985Z,10.82
2023-02-06T20:49:56.088Z,13.07
2023-02-06T20:53:58.352Z,11.27
2023-02-06T20:58:00.952Z,12.40
2023-02-06T21:02:02.884Z,12.68
2023-02-06T21:06:04.832Z,12.50
2023-02-06T21:10:06.881Z,13.18
2023-02-06T21:14:09.156Z,13.05
2023-02-06T21:18:10.920Z,13.15
2023-02-06T21:22:12.752Z,11.57
2023-02-06T21:26:17.502Z,11.18
2023-02-06T21:30:19.013Z,12.13
2023-02-06T21:34:23.053Z,12.50
2023-02-06T21:38:24.952Z,12.68
2023-02-06T21:42:27.611Z,10.43
2023-02-06T21:46:31.173Z,10.15
2023-02-06T21:50:33.411Z,11.20
2023-02-06T21:54:34.962Z,12.23
2023-02-06T21:58:39.242Z,10.43
2023-02-06T22:02:40.949Z,10.50
2023-02-06T22:06:43.679Z,22.05
2023-02-06T22:10:50.758Z,16.98
2023-02-06T22:14:52.830Z,11.45
2023-02-06T22:18:55.305Z,11.65
2023-02-06T22:22:57.124Z,11.10
2023-02-06T22:27:00.995Z,9.65
2023-02-06T22:31:11.307Z,11.13
2023-02-06T22:35:13.295Z,11.70
2023-02-06T22:39:25.722Z,11.75
2023-02-06T22:43:40.819Z,11.00
2023-02-06T22:47:48.494Z,11.65
2023-02-06T22:56:29.576Z,13.32
2023-02-06T23:00:31.308Z,11.15
2023-02-06T23:04:36.599Z,12.95
2023-02-06T23:08:38.843Z,12.27
2023-02-06T23:12:40.332Z,13.52
2023-02-06T23:16:42.937Z,11.77
2023-02-06T23:20:44.582Z,12.25
2023-02-06T23:24:46.708Z,10.85
2023-02-06T23:28:48.202Z,11.77
2023-02-06T23:32:51.071Z,7.80
2023-02-06T23:36:52.996Z,10.43
2023-02-06T23:40:54.829Z,10.18
2023-02-06T23:44:56.735Z,9.02
2023-02-06T23:48:58.657Z,11.02
2023-02-06T23:53:00.194Z,11.13
2023-02-06T23:57:02.029Z,9.23
